createdAt,value
2018-02-08T00:00:37.341Z,97.50
2018-02-08T00:03:04.894Z,97.60
2018-02-08T00:05:32.454Z,97.50
2018-02-08T00:07:59.999Z,97.50
2018-02-08T00:10:27.529Z,97.40
2018-02-08T00:12:55.024Z,97.30
2018-02-08T00:15:22.489Z,97.20
2018-02-08T00:17:50.027Z,97.20
2018-02-08T00:20:17.584Z,97.20
2018-02-08T00:22:46.050Z,97.20
2018-02-08T00:25:13.601Z,97.30
2018-02-08T00:27:41.146Z,97.40
2018-02-08T00:30:08.693Z,97.50
2018-02-08T00:32:36.292Z,97.60
2018-02-08T00:35:03.869Z,97.70
2018-02-08T00:37:31.449Z,97.80
2018-02-08T00:39:59.000Z,98.00
2018-02-08T00:42:26.599Z,98.00
2018-02-08T00:44:54.144Z,98.00
2018-02-08T00:47:21.755Z,98.00
2018-02-08T00:49:49.309Z,98.00
2018-02-08T00:52:16.854Z,98.20
2018-02-08T00:54:45.066Z,98.20
2018-02-08T00:57:12.589Z,98.00
2018-02-08T01:02:13.912Z,97.90
2018-02-08T01:04:42.373Z,97.50
2018-02-08T01:07:09.935Z,97.50
2018-02-08T01:09:37.475Z,97.50
2018-02-08T01:12:05.026Z,97.50
2018-02-08T01:14:33.559Z,97.40
2018-02-08T01:17:01.056Z,97.20
2018-02-08T01:19:28.555Z,97.20
2018-02-08T01:21:56.135Z,97.20
2018-02-08T01:24:23.699Z,97.20
2018-02-08T01:26:51.196Z,97.10
2018-02-08T01:29:18.692Z,97.10
2018-02-08T01:31:46.195Z,97.00
2018-02-08T01:34:13.701Z,97.00
2018-02-08T01:36:41.950Z,97.00
2018-02-08T01:39:09.463Z,96.90
2018-02-08T01:41:36.994Z,96.80
2018-02-08T01:44:05.282Z,96.60
2018-02-08T01:46:32.784Z,96.50
2018-02-08T01:49:00.371Z,96.50
2018-02-08T01:51:27.901Z,96.40
2018-02-08T01:53:55.418Z,96.50
2018-02-08T01:56:22.959Z,96.30
2018-02-08T01:58:51.253Z,96.70
2018-02-08T02:01:22.039Z,96.80
2018-02-08T02:03:49.551Z,96.60
2018-02-08T02:06:17.058Z,96.80
2018-02-08T02:08:44.558Z,96.80
2018-02-08T02:11:12.042Z,97.10
2018-02-08T02:13:39.541Z,97.10
2018-02-08T02:16:07.032Z,97.20
2018-02-08T02:18:34.557Z,97.10
2018-02-08T02:21:02.034Z,97.00
2018-02-08T02:23:30.315Z,97.20
2018-02-08T02:25:58.579Z,97.20
2018-02-08T02:28:26.099Z,97.20
2018-02-08T02:30:54.571Z,97.10
2018-02-08T02:33:22.100Z,97.30
2018-02-08T02:35:49.606Z,97.10
2018-02-08T02:38:17.116Z,97.20
2018-02-08T02:40:44.666Z,97.20
2018-02-08T02:43:12.749Z,97.20
2018-02-08T02:45:40.271Z,97.10
2018-02-08T02:48:07.764Z,97.10
2018-02-08T02:50:35.290Z,97.10
2018-02-08T02:53:05.586Z,97.10
2018-02-08T02:55:33.111Z,97.10
2018-02-08T02:58:01.430Z,97.10
2018-02-08T03:00:29.343Z,97.40
2018-02-08T03:02:56.834Z,97.50
2018-02-08T03:05:24.339Z,97.50
2018-02-08T03:07:52.623Z,97.70
2018-02-08T03:10:20.145Z,97.60
2018-02-08T03:12:47.741Z,97.80
2018-02-08T03:15:15.267Z,97.80
2018-02-08T03:17:42.756Z,97.70
2018-02-08T03:20:11.015Z,97.80
2018-02-08T03:22:39.280Z,98.00
2018-02-08T03:25:06.849Z,97.60
2018-02-08T03:27:34.327Z,97.40
2018-02-08T03:30:02.608Z,97.40
2018-02-08T03:32:30.105Z,97.30
2018-02-08T03:34:58.402Z,97.50
2018-02-08T03:37:25.931Z,97.60
2018-02-08T03:39:53.477Z,97.50
2018-02-08T03:42:21.019Z,97.70
2018-02-08T03:44:49.293Z,97.50
2018-02-08T03:47:16.799Z,97.50
2018-02-08T03:49:44.331Z,97.40
2018-02-08T03:52:11.895Z,97.50
2018-02-08T03:54:39.455Z,97.50
2018-02-08T03:57:06.982Z,97.60
2018-02-08T03:59:34.509Z,97.50
2018-02-08T04:02:02.051Z,97.50
2018-02-08T04:04:29.531Z,97.70
2018-02-08T04:06:57.058Z,97.70
2018-02-08T04:09:24.563Z,97.70
2018-02-08T04:11:52.066Z,97.80
2018-02-08T04:14:19.585Z,97.80
2018-02-08T04:16:47.082Z,97.80
2018-02-08T04:19:14.606Z,97.60
2018-02-08T04:24:16.035Z,97.50
2018-02-08T04:26:43.551Z,97.60
2018-02-08T04:29:11.087Z,97.50
2018-02-08T04:31:39.348Z,97.80
2018-02-08T04:34:06.860Z,97.70
2018-02-08T04:36:34.405Z,97.60
2018-02-08T04:39:13.834Z,97.70
2018-02-08T04:41:53.027Z,97.80
2018-02-08T04:44:32.479Z,97.60
2018-02-08T04:47:22.465Z,97.70
2018-02-08T04:49:50.040Z,97.90
2018-02-08T04:52:17.542Z,97.80
2018-02-08T04:54:45.039Z,97.90
2018-02-08T04:57:13.303Z,97.90
2018-02-08T04:59:40.841Z,97.90
2018-02-08T05:02:10.930Z,98.00
2018-02-08T05:04:38.452Z,98.00
2018-02-08T05:07:06.710Z,98.00
2018-02-08T05:09:34.219Z,97.90
2018-02-08T05:12:01.720Z,98.00
2018-02-08T05:14:29.194Z,97.90
2018-02-08T05:16:57.474Z,98.10
2018-02-08T05:19:25.761Z,98.10
2018-02-08T05:21:54.023Z,98.10
2018-02-08T05:24:21.523Z,98.10
2018-02-08T05:26:49.075Z,98.00
2018-02-08T05:29:16.663Z,98.10
2018-02-08T05:31:44.201Z,98.10
2018-02-08T05:34:11.727Z,98.00
2018-02-08T05:36:39.992Z,97.90
2018-02-08T05:39:08.259Z,98.00
2018-02-08T05:41:35.787Z,97.90
2018-02-08T05:44:03.290Z,97.70
2018-02-08T05:46:30.989Z,97.60
2018-02-08T05:48:58.551Z,97.50
2018-02-08T05:51:26.086Z,97.40
2018-02-08T05:53:53.597Z,97.50
2018-02-08T05:56:21.109Z,97.50
2018-02-08T05:58:48.647Z,97.60
2018-02-08T06:01:16.166Z,97.70
2018-02-08T06:03:43.667Z,97.80
2018-02-08T06:06:11.157Z,97.90
2018-02-08T06:08:38.624Z,97.80
2018-02-08T06:11:06.121Z,97.70
2018-02-08T06:13:33.608Z,97.80
2018-02-08T06:16:01.153Z,97.30
2018-02-08T06:18:29.459Z,97.70
2018-02-08T06:20:56.962Z,97.60
2018-02-08T06:23:24.458Z,97.70
2018-02-08T06:25:52.729Z,98.10
2018-02-08T06:28:20.229Z,97.90
2018-02-08T06:30:47.738Z,97.90
2018-02-08T06:33:15.241Z,97.80
2018-02-08T06:35:43.525Z,97.80
2018-02-08T06:38:11.416Z,97.80
2018-02-08T06:40:38.905Z,97.80
2018-02-08T06:43:07.192Z,97.90
2018-02-08T06:45:34.913Z,97.90
2018-02-08T06:48:02.618Z,98.00
2018-02-08T06:50:30.152Z,98.10
2018-02-08T06:52:57.659Z,98.10
2018-02-08T06:55:26.058Z,98.20
2018-02-08T06:57:53.644Z,98.10
2018-02-08T07:00:21.131Z,97.80
2018-02-08T07:02:48.631Z,97.60
2018-02-08T07:05:16.131Z,97.50
2018-02-08T07:07:44.399Z,97.70
2018-02-08T07:10:12.736Z,97.70
2018-02-08T07:12:40.215Z,97.70
2018-02-08T07:15:08.012Z,97.80
2018-02-08T07:17:35.524Z,98.10
2018-02-08T07:20:03.015Z,97.80
2018-02-08T07:22:30.498Z,97.70
2018-02-08T07:24:58.007Z,97.70
2018-02-08T07:27:25.610Z,97.70
2018-02-08T07:29:53.881Z,97.70
2018-02-08T07:32:22.135Z,97.70
2018-02-08T07:34:49.647Z,97.60
2018-02-08T07:37:17.183Z,97.50
2018-02-08T07:39:44.699Z,97.40
2018-02-08T07:42:12.199Z,97.30
2018-02-08T07:44:39.724Z,97.00
2018-02-08T07:47:07.256Z,97.00
2018-02-08T07:49:34.766Z,97.00
2018-02-08T07:52:02.777Z,96.90
2018-02-08T07:54:30.258Z,96.90
2018-02-08T07:56:58.569Z,97.10
2018-02-08T07:59:26.176Z,97.00
2018-02-08T08:01:53.650Z,97.00
2018-02-08T08:04:21.169Z,97.00
2018-02-08T08:06:48.656Z,97.00
2018-02-08T08:09:16.143Z,97.00
2018-02-08T08:11:43.665Z,96.80
2018-02-08T08:14:11.162Z,96.60
2018-02-08T08:16:39.458Z,96.80
2018-02-08T08:19:06.994Z,96.70
2018-02-08T08:21:34.560Z,96.90
2018-02-08T08:24:02.082Z,96.50
2018-02-08T08:26:29.592Z,96.60
2018-02-08T08:28:57.121Z,96.50
2018-02-08T08:31:24.620Z,96.50
2018-02-08T08:33:52.123Z,96.50
2018-02-08T08:36:19.642Z,96.70
2018-02-08T08:38:47.154Z,96.60
2018-02-08T08:41:14.661Z,96.50
2018-02-08T08:43:42.196Z,96.40
2018-02-08T08:46:09.747Z,96.20
2018-02-08T08:48:37.263Z,96.20
2018-02-08T08:51:04.849Z,96.30
2018-02-08T08:53:32.348Z,96.10
2018-02-08T08:55:59.861Z,96.50
2018-02-08T08:58:28.142Z,96.20
2018-02-08T09:00:56.425Z,96.00
2018-02-08T09:03:24.691Z,96.00
2018-02-08T09:05:52.238Z,96.00
2018-02-08T09:08:19.780Z,95.70
2018-02-08T09:10:47.295Z,95.80
2018-02-08T09:13:14.805Z,95.50
2018-02-08T09:15:42.397Z,95.30
2018-02-08T09:18:10.668Z,95.30
2018-02-08T09:20:38.175Z,95.20
2018-02-08T09:23:05.697Z,94.90
2018-02-08T09:25:33.206Z,95.00
2018-02-08T09:28:00.728Z,94.50
2018-02-08T09:30:28.299Z,94.40
2018-02-08T09:32:55.801Z,94.30
2018-02-08T09:35:23.442Z,94.20
2018-02-08T09:37:50.970Z,94.30
2018-02-08T09:40:18.784Z,93.60
2018-02-08T09:42:46.303Z,93.80
2018-02-08T09:45:15.329Z,93.40
2018-02-08T09:47:42.928Z,93.70
2018-02-08T09:50:10.421Z,93.10
2018-02-08T09:52:37.902Z,93.20
2018-02-08T09:55:05.415Z,93.00
2018-02-08T09:57:33.023Z,92.50
2018-02-08T10:00:00.507Z,92.20
2018-02-08T10:02:28.768Z,91.20
2018-02-08T10:04:56.259Z,91.30
2018-02-08T10:07:23.838Z,90.80
2018-02-08T10:09:52.048Z,90.70
2018-02-08T10:12:19.536Z,90.60
2018-02-08T10:14:47.040Z,90.70
2018-02-08T10:17:14.555Z,89.60
2018-02-08T10:19:42.083Z,88.40
2018-02-08T10:22:09.580Z,88.40
2018-02-08T10:24:37.057Z,88.70
2018-02-08T10:27:04.620Z,87.50
2018-02-08T10:29:32.123Z,86.90
2018-02-08T10:31:59.659Z,86.10
2018-02-08T10:34:27.219Z,86.30
2018-02-08T10:36:54.755Z,86.00
2018-02-08T10:39:22.270Z,87.60
2018-02-08T10:41:49.760Z,85.80
2018-02-08T10:44:17.283Z,84.90
2018-02-08T10:46:45.534Z,83.10
2018-02-08T10:49:13.024Z,82.90
2018-02-08T10:51:41.318Z,82.70
2018-02-08T10:54:08.834Z,82.40
2018-02-08T10:56:36.359Z,83.00
2018-02-08T10:59:03.885Z,81.40
2018-02-08T11:01:31.503Z,80.60
2018-02-08T11:03:59.591Z,80.50
2018-02-08T11:06:27.859Z,79.90
2018-02-08T11:08:55.378Z,79.70
2018-02-08T11:11:22.903Z,79.60
2018-02-08T11:13:50.429Z,78.30
2018-02-08T11:16:17.973Z,77.50
2018-02-08T11:18:45.815Z,77.10
2018-02-08T11:21:13.322Z,77.40
2018-02-08T11:23:41.605Z,76.60
2018-02-08T11:26:09.887Z,76.20
2018-02-08T11:28:38.154Z,76.80
2018-02-08T11:31:06.403Z,75.80
2018-02-08T11:33:33.932Z,75.60
2018-02-08T11:36:01.457Z,78.60
2018-02-08T11:38:28.940Z,77.00
2018-02-08T11:40:56.473Z,77.10
2018-02-08T11:43:23.985Z,78.70
2018-02-08T11:45:51.479Z,79.00
2018-02-08T11:48:19.743Z,80.70
2018-02-08T11:50:47.230Z,80.70
2018-02-08T11:53:14.730Z,78.40
2018-02-08T11:55:42.265Z,78.00
2018-02-08T11:58:09.800Z,79.40
2018-02-08T12:00:37.309Z,78.40
2018-02-08T12:03:04.806Z,78.90
2018-02-08T12:05:33.096Z,80.60
2018-02-08T12:08:00.611Z,80.40
2018-02-08T12:10:28.131Z,78.40
2018-02-08T12:12:55.637Z,79.00
2018-02-08T12:15:23.130Z,80.60
2018-02-08T12:17:50.746Z,80.80
2018-02-08T12:20:18.232Z,78.30
2018-02-08T12:22:46.538Z,76.90
2018-02-08T12:25:14.038Z,76.70
2018-02-08T12:27:41.612Z,77.70
2018-02-08T12:30:09.893Z,77.30
2018-02-08T12:32:38.132Z,78.10
2018-02-08T12:35:05.647Z,77.90
2018-02-08T12:37:33.934Z,77.50
2018-02-08T12:40:01.447Z,77.40
2018-02-08T12:42:28.953Z,77.80
2018-02-08T12:47:30.276Z,75.40
2018-02-08T12:49:58.729Z,76.20
2018-02-08T12:52:26.267Z,77.80
2018-02-08T12:54:53.780Z,76.20
2018-02-08T12:57:21.257Z,76.80
2018-02-08T12:59:48.776Z,75.60
2018-02-08T13:02:16.301Z,76.20
2018-02-08T13:04:43.792Z,76.00
2018-02-08T13:07:11.295Z,77.40
2018-02-08T13:09:38.766Z,77.50
2018-02-08T13:12:06.256Z,74.50
2018-02-08T13:14:33.756Z,76.00
2018-02-08T13:17:01.236Z,74.80
2018-02-08T13:19:28.813Z,74.90
2018-02-08T13:21:56.296Z,76.90
2018-02-08T13:24:23.800Z,78.50
2018-02-08T13:26:51.303Z,76.80
2018-02-08T13:29:18.822Z,76.90
2018-02-08T13:31:46.347Z,76.70
2018-02-08T13:34:14.580Z,74.40
2018-02-08T13:36:42.079Z,74.20
2018-02-08T13:39:09.629Z,74.30
2018-02-08T13:41:37.127Z,76.10
2018-02-08T13:44:04.652Z,76.20
2018-02-08T13:46:32.142Z,77.40
2018-02-08T13:52:23.949Z,75.10
2018-02-08T13:54:55.203Z,74.90
2018-02-08T13:57:29.294Z,72.10
2018-02-08T14:00:09.499Z,73.10
2018-02-08T14:02:37.081Z,72.10
2018-02-08T14:05:04.648Z,70.00
2018-02-08T14:07:32.225Z,70.10
2018-02-08T14:09:59.744Z,72.90
2018-02-08T14:12:27.318Z,72.00
2018-02-08T14:14:54.795Z,71.20
2018-02-08T14:17:22.356Z,70.70
2018-02-08T14:19:49.891Z,70.30
2018-02-08T14:22:17.410Z,70.00
2018-02-08T14:24:45.675Z,67.80
2018-02-08T14:27:13.178Z,67.60
2018-02-08T14:29:40.684Z,71.10
2018-02-08T14:32:09.854Z,74.10
2018-02-08T14:34:38.256Z,73.90
2018-02-08T14:37:05.823Z,74.60
2018-02-08T14:39:33.336Z,74.30
2018-02-08T14:42:00.842Z,73.90
2018-02-08T14:44:29.145Z,74.00
2018-02-08T14:46:56.735Z,73.90
2018-02-08T14:49:24.256Z,73.80
2018-02-08T14:51:51.791Z,74.70
2018-02-08T14:54:19.320Z,75.00
2018-02-08T14:56:46.884Z,74.50
2018-02-08T14:59:14.374Z,74.10
2018-02-08T15:01:42.721Z,76.80
2018-02-08T15:04:11.133Z,77.10
2018-02-08T15:06:38.700Z,76.70
2018-02-08T15:09:06.264Z,77.10
2018-02-08T15:11:33.886Z,77.70
2018-02-08T15:14:01.462Z,78.00
2018-02-08T15:16:29.071Z,78.10
2018-02-08T15:18:56.587Z,77.90
2018-02-08T15:21:24.096Z,78.60
2018-02-08T15:23:51.586Z,77.70
2018-02-08T15:26:19.114Z,78.00
2018-02-08T15:28:46.632Z,78.40
2018-02-08T15:31:14.898Z,78.20
2018-02-08T15:33:43.243Z,78.10
2018-02-08T15:36:10.806Z,78.60
2018-02-08T15:38:38.397Z,78.10
2018-02-08T15:41:06.724Z,78.00
2018-02-08T15:43:34.243Z,77.70
2018-02-08T15:46:01.782Z,78.20
2018-02-08T15:48:30.072Z,78.50
2018-02-08T15:50:58.359Z,78.50
2018-02-08T15:53:25.950Z,78.40
2018-02-08T15:55:53.480Z,78.10
2018-02-08T15:58:21.256Z,77.60
2018-02-08T16:00:50.614Z,79.60
2018-02-08T16:03:18.287Z,79.40
2018-02-08T16:05:45.889Z,79.90
2018-02-08T16:08:13.524Z,80.60
2018-02-08T16:10:41.090Z,81.80
2018-02-08T16:13:08.592Z,82.20
2018-02-08T16:15:36.108Z,82.30
2018-02-08T16:18:03.632Z,81.50
2018-02-08T16:20:31.925Z,82.40
2018-02-08T16:23:00.212Z,82.40
2018-02-08T16:25:27.763Z,82.20
2018-02-08T16:27:55.298Z,82.40
2018-02-08T16:30:22.818Z,82.80
2018-02-08T16:32:50.358Z,83.80
2018-02-08T16:35:18.711Z,84.90
2018-02-08T16:37:46.208Z,84.80
2018-02-08T16:40:13.750Z,85.20
2018-02-08T16:42:41.248Z,85.70
2018-02-08T16:45:08.774Z,85.30
2018-02-08T16:47:36.304Z,85.30
2018-02-08T16:50:03.855Z,86.30
2018-02-08T16:52:32.155Z,87.20
2018-02-08T16:55:00.400Z,87.80
2018-02-08T16:57:28.729Z,88.10
2018-02-08T16:59:56.255Z,88.00
2018-02-08T17:02:31.421Z,88.20
2018-02-08T17:05:03.394Z,88.50
2018-02-08T17:07:31.170Z,89.20
2018-02-08T17:09:58.724Z,89.60
2018-02-08T17:12:26.291Z,90.10
2018-02-08T17:14:53.842Z,90.30
2018-02-08T17:17:21.421Z,90.40
2018-02-08T17:19:49.011Z,90.30
2018-02-08T17:22:17.535Z,90.30
2018-02-08T17:24:45.064Z,90.40
2018-02-08T17:27:12.570Z,90.50
2018-02-08T17:29:40.105Z,90.70
2018-02-08T17:32:10.436Z,90.60
2018-02-08T17:37:23.820Z,90.30
2018-02-08T17:39:57.339Z,90.30
2018-02-08T17:42:24.881Z,90.90
2018-02-08T17:44:53.564Z,90.70
2018-02-08T17:47:21.183Z,91.00
2018-02-08T17:49:50.669Z,91.00
2018-02-08T17:52:18.234Z,91.10
2018-02-08T17:54:47.109Z,91.00
2018-02-08T17:57:16.449Z,91.00
2018-02-08T17:59:47.347Z,91.00
2018-02-08T18:02:15.737Z,91.10
2018-02-08T18:04:44.273Z,90.90
2018-02-08T18:07:12.573Z,91.20
2018-02-08T18:09:40.117Z,91.00
2018-02-08T18:12:08.966Z,91.20
2018-02-08T18:14:43.258Z,91.40
2018-02-08T18:17:14.192Z,91.30
2018-02-08T18:19:41.819Z,91.20
2018-02-08T18:22:12.603Z,91.30
2018-02-08T18:24:41.616Z,91.30
2018-02-08T18:27:10.118Z,91.30
2018-02-08T18:29:39.867Z,91.80
2018-02-08T18:32:07.571Z,91.70
2018-02-08T18:34:35.170Z,91.90
2018-02-08T18:37:04.094Z,91.90
2018-02-08T18:39:31.689Z,91.80
2018-02-08T18:42:04.239Z,91.80
2018-02-08T18:44:33.073Z,91.80
2018-02-08T18:47:00.849Z,92.00
2018-02-08T18:49:29.059Z,92.10
2018-02-08T18:51:56.645Z,92.60
2018-02-08T18:54:25.859Z,93.00
2018-02-08T18:56:53.392Z,92.90
2018-02-08T18:59:21.842Z,93.10
2018-02-08T19:01:50.733Z,93.00
2018-02-08T19:04:18.921Z,93.20
2018-02-08T19:06:46.545Z,93.30
2018-02-08T19:09:14.340Z,93.60
2018-02-08T19:11:42.039Z,93.50
2018-02-08T19:14:09.698Z,93.40
2018-02-08T19:16:37.364Z,93.50
2018-02-08T19:19:04.958Z,93.50
2018-02-08T19:21:32.531Z,93.60
2018-02-08T19:24:01.339Z,93.90
2018-02-08T19:26:28.945Z,94.00
2018-02-08T19:28:57.302Z,94.70
2018-02-08T19:31:25.036Z,94.50
2018-02-08T19:33:52.602Z,94.70
2018-02-08T19:36:20.131Z,95.00
2018-02-08T19:38:48.853Z,95.10
2018-02-08T19:41:16.513Z,95.10
2018-02-08T19:43:44.147Z,95.40
2018-02-08T19:46:11.650Z,95.40
2018-02-08T19:48:39.150Z,95.50
2018-02-08T19:51:06.662Z,95.50
2018-02-08T19:53:34.245Z,95.60
2018-02-08T19:56:01.774Z,95.50
2018-02-08T19:58:29.290Z,95.30
2018-02-08T20:00:56.806Z,95.30
2018-02-08T20:03:24.369Z,95.30
2018-02-08T20:05:51.866Z,95.40
2018-02-08T20:08:19.392Z,95.40
2018-02-08T20:10:46.959Z,95.40
2018-02-08T20:13:14.535Z,95.50
2018-02-08T20:15:42.105Z,95.60
2018-02-08T20:18:09.653Z,95.50
2018-02-08T20:20:38.075Z,95.70
2018-02-08T20:23:05.606Z,95.60
2018-02-08T20:25:39.420Z,95.50
2018-02-08T20:28:06.987Z,95.40
2018-02-08T20:30:34.586Z,95.40
2018-02-08T20:33:02.178Z,95.30
2018-02-08T20:35:29.698Z,95.30
2018-02-08T20:37:57.219Z,95.30
2018-02-08T20:40:24.765Z,95.50
2018-02-08T20:42:58.062Z,95.30
2018-02-08T20:45:25.639Z,95.40
2018-02-08T20:47:53.142Z,95.40
2018-02-08T20:50:20.816Z,95.30
2018-02-08T20:52:49.057Z,95.30
2018-02-08T20:55:16.598Z,95.50
2018-02-08T20:57:44.095Z,95.50
2018-02-08T21:00:11.796Z,95.50
2018-02-08T21:02:39.341Z,95.50
2018-02-08T21:05:07.698Z,95.50
2018-02-08T21:07:36.049Z,95.90
2018-02-08T21:10:03.555Z,95.90
2018-02-08T21:12:31.084Z,95.90
2018-02-08T21:14:58.619Z,96.00
2018-02-08T21:17:26.135Z,96.00
2018-02-08T21:19:53.740Z,95.90
2018-02-08T21:22:21.250Z,96.10
2018-02-08T21:24:48.766Z,95.90
2018-02-08T21:27:16.339Z,95.90
2018-02-08T21:29:43.826Z,95.80
2018-02-08T21:32:11.377Z,95.70
2018-02-08T21:34:39.661Z,95.60
2018-02-08T21:37:07.171Z,95.60
2018-02-08T21:39:34.683Z,95.80
2018-02-08T21:42:02.186Z,96.00
2018-02-08T21:44:29.788Z,96.00
2018-02-08T21:46:57.290Z,96.00
2018-02-08T21:49:24.812Z,96.20
2018-02-08T21:51:52.313Z,96.30
2018-02-08T21:54:19.864Z,96.40
2018-02-08T21:56:47.437Z,96.50
2018-02-08T21:59:15.759Z,96.30
2018-02-08T22:01:43.288Z,96.10
2018-02-08T22:04:10.804Z,95.90
2018-02-08T22:06:38.361Z,95.80
2018-02-08T22:09:05.877Z,95.70
2018-02-08T22:11:34.128Z,95.90
2018-02-08T22:14:01.635Z,95.80
2018-02-08T22:16:29.211Z,96.10
2018-02-08T22:18:56.746Z,96.40
2018-02-08T22:21:24.256Z,96.50
2018-02-08T22:23:51.803Z,96.50
2018-02-08T22:26:19.316Z,96.60
2018-02-08T22:28:47.610Z,96.80
2018-02-08T22:31:15.135Z,96.70
2018-02-08T22:33:43.428Z,96.50
2018-02-08T22:36:11.677Z,96.30
2018-02-08T22:38:39.436Z,96.20
2018-02-08T22:41:06.968Z,96.40
2018-02-08T22:43:34.461Z,96.30
2018-02-08T22:46:01.987Z,96.20
2018-02-08T22:48:29.480Z,96.00
2018-02-08T22:50:56.966Z,96.00
2018-02-08T22:53:24.577Z,95.90
2018-02-08T22:55:52.107Z,95.90
2018-02-08T22:58:19.621Z,96.10
2018-02-08T23:00:47.900Z,96.10
2018-02-08T23:03:15.410Z,95.90
2018-02-08T23:05:42.922Z,96.10
2018-02-08T23:08:11.203Z,96.70
2018-02-08T23:10:39.484Z,96.80
2018-02-08T23:13:06.961Z,96.70
2018-02-08T23:15:34.461Z,96.50
2018-02-08T23:18:02.012Z,96.50
2018-02-08T23:20:29.502Z,96.30
2018-02-08T23:22:57.802Z,96.60
2018-02-08T23:25:25.315Z,96.50
2018-02-08T23:27:52.827Z,96.40
2018-02-08T23:30:20.349Z,96.30
2018-02-08T23:32:48.662Z,96.60
2018-02-08T23:35:16.386Z,96.50
2018-02-08T23:37:44.701Z,96.80
2018-02-08T23:40:12.204Z,96.40
2018-02-08T23:42:40.522Z,96.00
2018-02-08T23:45:08.070Z,96.00
2018-02-08T23:47:35.513Z,95.80
2018-02-08T23:50:03.004Z,96.00
2018-02-08T23:52:30.573Z,95.80
2018-02-08T23:54:58.071Z,96.30
2018-02-08T23:57:25.573Z,95.90
2018-02-08T23:59:53.113Z,95.80
